Time;durP1;ratioP1;P1;durP2;ratioP2;P2;SDS_P1;SDS_P2;PMS_P1;PMS_P2;Temp;Humidity;BMP_temperature;BMP_pressure;BME280_temperature;BME280_humidity;BME280_pressure;Samples;Min_cycle;Max_cycle;Signal;HPM_P1;HPM_P2
2021/10/06 00:01:48;;;;;;;22.48;21.08;;;;;;;;;;5036962;28;20558;-63
2021/10/06 00:04:14;;;;;;;26.30;24.65;;;;;;;;;;5038370;28;20025;-62
2021/10/06 00:06:39;;;;;;;32.47;30.75;;;;;;;;;;5036782;28;20461;-62
2021/10/06 00:09:06;;;;;;;58.17;55.30;;;;;;;;;;5035018;28;20037;-62
2021/10/06 00:11:31;;;;;;;55.28;52.42;;;;;;;;;;5040876;28;20021;-62
2021/10/06 00:13:57;;;;;;;43.22;40.97;;;;;;;;;;5039017;28;20098;-62
2021/10/06 00:16:22;;;;;;;47.53;45.10;;;;;;;;;;5043253;28;20032;-62
2021/10/06 00:18:47;;;;;;;34.33;32.42;;;;;;;;;;5037517;28;20382;-62
2021/10/06 00:21:13;;;;;;;30.27;28.55;;;;;;;;;;5039932;28;20036;-61
2021/10/06 00:23:38;;;;;;;18.33;16.70;;;;;;;;;;5039640;28;20025;-62
2021/10/06 00:26:04;;;;;;;38.92;36.53;;;;;;;;;;5039464;28;20112;-62
2021/10/06 00:28:29;;;;;;;42.47;40.22;;;;;;;;;;5039901;28;20200;-60
2021/10/06 00:30:55;;;;;;;36.17;34.13;;;;;;;;;;5038342;28;20367;-61
2021/10/06 00:33:20;;;;;;;49.85;46.90;;;;;;;;;;5041212;28;20025;-61
2021/10/06 00:35:46;;;;;;;47.20;44.43;;;;;;;;;;5040730;28;20035;-62
2021/10/06 00:38:11;;;;;;;46.53;43.95;;;;;;;;;;5038871;28;20412;-61
2021/10/06 00:40:37;;;;;;;43.22;40.90;;;;;;;;;;5032667;28;20025;-61
2021/10/06 00:43:02;;;;;;;62.83;59.47;;;;;;;;;;5033328;28;20495;-61
2021/10/06 00:45:27;;;;;;;74.55;71.00;;;;;;;;;;5037518;28;20030;-62
2021/10/06 00:47:53;;;;;;;63.20;60.13;;;;;;;;;;5041459;28;20479;-62
2021/10/06 00:50:18;;;;;;;68.28;64.63;;;;;;;;;;5036312;28;20026;-62
2021/10/06 00:52:46;;;;;;;61.67;58.42;;;;;;;;;;5034589;28;20029;-61
2021/10/06 00:55:15;;;;;;;61.33;58.25;;;;;;;;;;5039359;28;20029;-62
2021/10/06 00:57:40;;;;;;;53.60;50.88;;;;;;;;;;5038296;28;20032;-62
2021/10/06 01:00:06;;;;;;;63.03;60.13;;;;;;;;;;5034249;28;20025;-62
2021/10/06 01:02:31;;;;;;;52.67;50.20;;;;;;;;;;5036327;28;20422;-62
2021/10/06 01:04:56;;;;;;;43.70;41.40;;;;;;;;;;5036089;28;20349;-62
2021/10/06 01:07:22;;;;;;;62.35;59.53;;;;;;;;;;5035991;28;20033;-61
2021/10/06 01:09:47;;;;;;;38.35;36.33;;;;;;;;;;5037903;28;20147;-61
2021/10/06 01:12:12;;;;;;;51.45;48.65;;;;;;;;;;5037951;28;20029;-62
2021/10/06 01:14:38;;;;;;;64.25;61.35;;;;;;;;;;5039245;28;20018;-62
2021/10/06 01:17:03;;;;;;;58.88;55.85;;;;;;;;;;5037799;28;20030;-61
2021/10/06 01:19:29;;;;;;;68.18;64.32;;;;;;;;;;5038418;28;20507;-62
2021/10/06 01:21:55;;;;;;;47.03;44.65;;;;;;;;;;5037947;28;20018;-62
2021/10/06 01:24:21;;;;;;;40.53;38.33;;;;;;;;;;5037780;28;20382;-61
2021/10/06 01:26:46;;;;;;;56.65;53.80;;;;;;;;;;5035755;28;20281;-63
2021/10/06 01:29:14;;;;;;;52.70;50.03;;;;;;;;;;5023633;28;20158;-63
2021/10/06 01:31:39;;;;;;;54.97;52.38;;;;;;;;;;5018962;28;20483;-63
2021/10/06 01:34:05;;;;;;;55.20;52.33;;;;;;;;;;5018362;28;20112;-62
2021/10/06 01:36:30;;;;;;;62.35;59.25;;;;;;;;;;5020199;28;20071;-63
2021/10/06 01:38:55;;;;;;;55.97;53.10;;;;;;;;;;5014538;28;20041;-63
2021/10/06 01:41:20;;;;;;;51.25;48.50;;;;;;;;;;5017725;28;20025;-61
2021/10/06 01:43:46;;;;;;;49.70;47.20;;;;;;;;;;5018528;28;20480;-62
2021/10/06 01:46:11;;;;;;;57.92;54.08;;;;;;;;;;5013949;28;20029;-62
2021/10/06 01:48:36;;;;;;;55.63;52.40;;;;;;;;;;5011494;28;20025;-62
2021/10/06 01:51:02;;;;;;;50.58;48.08;;;;;;;;;;5017277;28;20032;-61
2021/10/06 01:53:37;;;;;;;41.63;39.55;;;;;;;;;;5017889;28;20124;-62
2021/10/06 01:56:03;;;;;;;54.85;51.72;;;;;;;;;;5016094;28;20149;-62
2021/10/06 01:58:28;;;;;;;50.60;48.15;;;;;;;;;;5017288;28;20795;-62
2021/10/06 02:00:53;;;;;;;59.67;56.78;;;;;;;;;;5023907;28;20275;-62
2021/10/06 02:03:18;;;;;;;51.25;48.65;;;;;;;;;;5015455;28;20040;-62
2021/10/06 02:05:44;;;;;;;53.75;51.35;;;;;;;;;;5019412;28;20079;-62
2021/10/06 02:08:09;;;;;;;31.25;29.77;;;;;;;;;;5018809;28;20041;-61
2021/10/06 02:10:38;;;;;;;30.80;29.23;;;;;;;;;;5017923;28;20026;-62
2021/10/06 02:13:03;;;;;;;46.67;44.15;;;;;;;;;;5015655;28;20408;-62
2021/10/06 02:15:28;;;;;;;42.10;40.22;;;;;;;;;;5014474;28;20030;-62
2021/10/06 02:17:54;;;;;;;43.47;41.50;;;;;;;;;;5017945;28;20049;-62
2021/10/06 02:20:19;;;;;;;51.70;49.35;;;;;;;;;;5016862;28;20021;-59
2021/10/06 02:22:45;;;;;;;43.30;41.42;;;;;;;;;;5017435;28;20031;-58
2021/10/06 02:25:10;;;;;;;52.67;50.38;;;;;;;;;;5017381;28;20056;-60
2021/10/06 02:27:36;;;;;;;57.58;54.95;;;;;;;;;;5017800;28;20091;-59
2021/10/06 02:30:03;;;;;;;36.40;34.70;;;;;;;;;;5034786;28;20013;-61
2021/10/06 02:32:28;;;;;;;47.35;45.17;;;;;;;;;;5037404;28;20021;-60
2021/10/06 02:34:53;;;;;;;52.50;50.08;;;;;;;;;;5035873;28;20021;-60
2021/10/06 02:37:19;;;;;;;46.22;44.25;;;;;;;;;;5036934;28;20518;-61
2021/10/06 02:39:44;;;;;;;55.45;53.05;;;;;;;;;;5035808;28;20379;-60
2021/10/06 02:42:09;;;;;;;65.50;62.80;;;;;;;;;;5032751;28;20128;-61
2021/10/06 02:44:35;;;;;;;69.38;66.00;;;;;;;;;;5035524;28;20029;-59
2021/10/06 02:47:01;;;;;;;76.13;72.75;;;;;;;;;;5036661;28;20536;-60
2021/10/06 02:49:26;;;;;;;74.07;70.80;;;;;;;;;;5036445;28;20016;-60
2021/10/06 02:51:51;;;;;;;68.78;65.65;;;;;;;;;;5035448;28;20028;-60
2021/10/06 02:54:16;;;;;;;67.45;64.45;;;;;;;;;;5035050;28;20020;-59
2021/10/06 02:56:42;;;;;;;58.53;54.78;;;;;;;;;;5037230;28;20123;-59
2021/10/06 02:59:07;;;;;;;69.68;66.68;;;;;;;;;;5038354;28;20462;-60
2021/10/06 03:01:32;;;;;;;47.70;45.30;;;;;;;;;;5032883;28;20494;-59
2021/10/06 03:03:58;;;;;;;78.82;75.10;;;;;;;;;;5035378;28;20383;-60
2021/10/06 03:06:23;;;;;;;69.18;65.80;;;;;;;;;;5036450;28;20147;-59
2021/10/06 03:08:48;;;;;;;58.63;55.85;;;;;;;;;;5037716;28;20037;-60
2021/10/06 03:11:13;;;;;;;79.30;75.90;;;;;;;;;;5033304;28;20822;-61
2021/10/06 03:13:39;;;;;;;49.33;47.03;;;;;;;;;;5034420;28;20103;-62
2021/10/06 03:16:04;;;;;;;53.92;51.53;;;;;;;;;;5036899;28;20104;-61
2021/10/06 03:18:29;;;;;;;62.80;60.05;;;;;;;;;;5036381;28;20474;-60
2021/10/06 03:20:54;;;;;;;38.92;37.20;;;;;;;;;;5033847;28;20076;-58
2021/10/06 03:23:21;;;;;;;39.85;38.25;;;;;;;;;;5033628;28;20030;-57
2021/10/06 03:25:46;;;;;;;39.85;38.13;;;;;;;;;;5037743;28;20529;-61
2021/10/06 03:28:11;;;;;;;62.72;59.47;;;;;;;;;;5037228;28;20049;-56
2021/10/06 03:30:36;;;;;;;93.63;89.60;;;;;;;;;;5037721;28;20493;-54
2021/10/06 03:33:02;;;;;;;73.07;70.10;;;;;;;;;;5037292;28;20029;-54
2021/10/06 03:35:27;;;;;;;87.10;83.57;;;;;;;;;;5038190;28;20310;-53
2021/10/06 03:37:53;;;;;;;90.28;86.43;;;;;;;;;;5036760;28;20030;-58
2021/10/06 03:40:18;;;;;;;75.82;72.82;;;;;;;;;;5038347;28;20033;-58
2021/10/06 03:42:43;;;;;;;88.60;84.90;;;;;;;;;;5039160;28;20046;-59
2021/10/06 03:45:10;;;;;;;86.43;82.93;;;;;;;;;;5040343;28;20024;-59
2021/10/06 03:47:35;;;;;;;82.45;79.10;;;;;;;;;;5042284;28;20183;-59
2021/10/06 03:50:01;;;;;;;99.32;95.38;;;;;;;;;;5038521;28;20539;-57
2021/10/06 03:52:26;;;;;;;91.40;87.88;;;;;;;;;;5040861;28;20032;-58
2021/10/06 03:54:51;;;;;;;79.22;75.82;;;;;;;;;;5034956;28;20498;-58
2021/10/06 03:57:17;;;;;;;87.95;83.93;;;;;;;;;;5037789;28;20033;-59
2021/10/06 03:59:42;;;;;;;84.30;80.85;;;;;;;;;;5035853;28;20021;-58
2021/10/06 04:02:07;;;;;;;76.20;73.07;;;;;;;;;;5037177;28;20028;-57
2021/10/06 04:04:32;;;;;;;91.90;88.35;;;;;;;;;;5040705;28;20017;-59
2021/10/06 04:06:58;;;;;;;73.88;71.07;;;;;;;;;;5038953;28;20111;-55
2021/10/06 04:09:23;;;;;;;91.53;88.05;;;;;;;;;;5038468;28;20026;-58
2021/10/06 04:11:48;;;;;;;110.47;105.75;;;;;;;;;;5035399;28;20025;-53
2021/10/06 04:14:14;;;;;;;101.80;97.65;;;;;;;;;;5039093;28;20060;-58
2021/10/06 04:16:39;;;;;;;92.60;88.80;;;;;;;;;;5038584;28;20083;-57
2021/10/06 04:19:04;;;;;;;102.35;97.88;;;;;;;;;;5034068;28;20251;-56
2021/10/06 04:21:30;;;;;;;111.78;107.05;;;;;;;;;;5035330;28;20156;-59
2021/10/06 04:23:55;;;;;;;118.47;113.43;;;;;;;;;;5038629;28;20460;-57
2021/10/06 04:26:20;;;;;;;105.85;101.75;;;;;;;;;;5038709;28;20037;-56
2021/10/06 04:28:45;;;;;;;99.55;95.90;;;;;;;;;;5040429;28;20061;-58
2021/10/06 04:31:11;;;;;;;115.50;111.18;;;;;;;;;;5038770;28;20100;-54
2021/10/06 04:33:36;;;;;;;114.40;109.63;;;;;;;;;;5038039;28;20036;-57
2021/10/06 04:36:01;;;;;;;123.53;117.63;;;;;;;;;;5035928;28;20029;-58
2021/10/06 04:38:27;;;;;;;113.05;107.85;;;;;;;;;;5037947;28;20120;-55
2021/10/06 04:40:52;;;;;;;119.20;114.53;;;;;;;;;;5038598;28;20041;-59
2021/10/06 04:43:17;;;;;;;108.82;104.20;;;;;;;;;;5035940;28;20094;-54
2021/10/06 04:45:42;;;;;;;98.88;94.82;;;;;;;;;;5036392;28;20068;-59
2021/10/06 04:48:08;;;;;;;95.10;91.40;;;;;;;;;;5040358;28;20014;-61
2021/10/06 04:50:33;;;;;;;103.50;99.40;;;;;;;;;;5044507;28;20032;-60
2021/10/06 04:52:59;;;;;;;101.63;97.28;;;;;;;;;;5042482;28;20100;-57
2021/10/06 04:55:24;;;;;;;99.78;95.60;;;;;;;;;;5035971;28;20033;-61
2021/10/06 04:57:49;;;;;;;113.85;107.40;;;;;;;;;;5037643;28;20048;-61
2021/10/06 05:00:15;;;;;;;104.38;99.72;;;;;;;;;;5040649;28;20026;-60
2021/10/06 05:02:40;;;;;;;116.70;111.78;;;;;;;;;;5035130;28;20028;-61
2021/10/06 05:05:06;;;;;;;92.18;88.25;;;;;;;;;;5035081;28;20025;-60
2021/10/06 05:07:31;;;;;;;101.85;97.70;;;;;;;;;;5039749;28;20408;-64
2021/10/06 05:09:56;;;;;;;120.32;115.35;;;;;;;;;;5035751;28;20030;-60
2021/10/06 05:12:21;;;;;;;115.63;110.88;;;;;;;;;;5039768;28;20107;-61
2021/10/06 05:14:47;;;;;;;113.50;108.30;;;;;;;;;;5038266;28;20020;-61
2021/10/06 05:17:12;;;;;;;119.75;114.57;;;;;;;;;;5036967;28;20471;-61
2021/10/06 05:19:37;;;;;;;121.53;116.53;;;;;;;;;;5036478;28;20072;-61
2021/10/06 05:22:03;;;;;;;106.78;102.00;;;;;;;;;;5036107;28;20029;-60
2021/10/06 05:24:28;;;;;;;108.03;103.53;;;;;;;;;;5036082;28;20427;-61
2021/10/06 05:26:53;;;;;;;114.30;109.38;;;;;;;;;;5036013;28;20029;-60
2021/10/06 05:29:20;;;;;;;104.07;99.97;;;;;;;;;;5037637;28;20527;-61
2021/10/06 05:31:46;;;;;;;93.38;89.32;;;;;;;;;;5034603;28;20018;-61
2021/10/06 05:34:11;;;;;;;130.25;125.00;;;;;;;;;;5036965;28;20017;-60
2021/10/06 05:36:36;;;;;;;115.78;110.95;;;;;;;;;;5036050;28;20032;-61
2021/10/06 05:39:02;;;;;;;126.40;121.50;;;;;;;;;;5039177;28;20036;-60
2021/10/06 05:41:27;;;;;;;128.75;123.60;;;;;;;;;;5034520;28;20021;-59
2021/10/06 05:43:52;;;;;;;128.02;122.75;;;;;;;;;;5037599;28;20452;-58
2021/10/06 05:46:17;;;;;;;127.03;121.45;;;;;;;;;;5039773;28;20538;-59
2021/10/06 05:48:43;;;;;;;110.22;105.90;;;;;;;;;;5033535;28;20035;-62
2021/10/06 05:51:08;;;;;;;126.88;122.07;;;;;;;;;;5032439;28;20021;-61
2021/10/06 05:53:33;;;;;;;141.70;136.23;;;;;;;;;;5032242;28;20029;-61
2021/10/06 05:55:58;;;;;;;116.78;112.20;;;;;;;;;;5035170;28;20059;-61
2021/10/06 05:58:25;;;;;;;94.95;91.40;;;;;;;;;;5039350;28;20032;-61
2021/10/06 06:00:50;;;;;;;111.72;107.20;;;;;;;;;;5037989;28;20055;-61
2021/10/06 06:03:16;;;;;;;120.97;116.25;;;;;;;;;;5038013;28;20051;-62
2021/10/06 06:05:41;;;;;;;130.00;124.88;;;;;;;;;;5041612;28;20044;-62
2021/10/06 06:08:07;;;;;;;136.52;131.05;;;;;;;;;;5042513;28;20033;-62
2021/10/06 06:10:32;;;;;;;122.18;117.13;;;;;;;;;;5036090;28;20041;-62
2021/10/06 06:12:57;;;;;;;126.57;121.70;;;;;;;;;;5038317;28;20063;-61
2021/10/06 06:15:23;;;;;;;114.97;110.45;;;;;;;;;;5042640;28;20028;-62
2021/10/06 06:17:48;;;;;;;142.30;136.20;;;;;;;;;;5037511;28;20038;-62
2021/10/06 06:20:14;;;;;;;121.10;116.32;;;;;;;;;;5039646;28;20142;-62
2021/10/06 06:22:40;;;;;;;154.63;148.57;;;;;;;;;;5038480;28;20387;-62
2021/10/06 06:25:06;;;;;;;155.85;149.63;;;;;;;;;;5042461;28;20017;-62
2021/10/06 06:27:32;;;;;;;159.30;152.65;;;;;;;;;;5041050;28;20052;-61
2021/10/06 06:29:57;;;;;;;148.55;142.82;;;;;;;;;;5036096;28;20030;-62
2021/10/06 06:32:22;;;;;;;150.15;144.25;;;;;;;;;;5038764;28;20107;-61
2021/10/06 06:34:47;;;;;;;156.38;150.10;;;;;;;;;;5037881;28;20013;-62
2021/10/06 06:37:13;;;;;;;165.43;158.80;;;;;;;;;;5039317;28;20299;-62
2021/10/06 06:39:38;;;;;;;145.20;139.63;;;;;;;;;;5039798;28;20465;-62
2021/10/06 06:42:03;;;;;;;159.27;152.95;;;;;;;;;;5032865;28;20016;-62
2021/10/06 06:44:28;;;;;;;181.40;173.95;;;;;;;;;;5040272;28;20013;-61
2021/10/06 06:46:54;;;;;;;169.75;162.60;;;;;;;;;;5038483;28;20255;-61
2021/10/06 06:49:19;;;;;;;165.50;158.57;;;;;;;;;;5037141;28;20529;-61
2021/10/06 06:51:44;;;;;;;164.82;158.25;;;;;;;;;;5039178;28;20032;-62
2021/10/06 06:54:10;;;;;;;155.32;148.95;;;;;;;;;;5041963;28;20045;-61
2021/10/06 06:56:44;;;;;;;180.27;172.65;;;;;;;;;;5038068;28;20507;-61
2021/10/06 06:59:09;;;;;;;160.37;153.87;;;;;;;;;;5042698;28;20111;-62
2021/10/06 07:01:35;;;;;;;185.15;177.65;;;;;;;;;;5042614;28;20279;-62
2021/10/06 07:04:00;;;;;;;152.23;146.23;;;;;;;;;;5043386;28;20357;-62
2021/10/06 07:06:28;;;;;;;152.65;146.45;;;;;;;;;;5043154;28;20025;-62
2021/10/06 07:08:53;;;;;;;163.05;156.50;;;;;;;;;;5044985;28;20029;-62
2021/10/06 07:11:18;;;;;;;187.48;179.85;;;;;;;;;;5048338;28;20066;-61
2021/10/06 07:13:43;;;;;;;169.52;162.65;;;;;;;;;;5046434;28;20131;-62
2021/10/06 07:16:09;;;;;;;188.32;180.73;;;;;;;;;;5041806;28;20021;-62
2021/10/06 07:18:34;;;;;;;189.18;181.23;;;;;;;;;;5039099;28;20024;-62
2021/10/06 07:20:59;;;;;;;198.10;189.90;;;;;;;;;;5047104;28;20048;-62
2021/10/06 07:23:24;;;;;;;186.77;179.13;;;;;;;;;;5045080;28;20023;-62
2021/10/06 07:25:50;;;;;;;184.55;177.00;;;;;;;;;;5043343;28;20467;-60
2021/10/06 07:28:15;;;;;;;182.43;174.82;;;;;;;;;;5038748;28;20052;-60
2021/10/06 07:30:40;;;;;;;181.95;174.27;;;;;;;;;;5037275;28;20018;-60
2021/10/06 07:33:06;;;;;;;185.18;177.32;;;;;;;;;;5038407;28;20021;-60
2021/10/06 07:35:31;;;;;;;198.65;190.35;;;;;;;;;;5039154;28;20038;-58
2021/10/06 07:37:56;;;;;;;189.98;181.95;;;;;;;;;;5039358;28;20041;-59
2021/10/06 07:40:22;;;;;;;213.75;204.40;;;;;;;;;;5038658;28;20108;-59
2021/10/06 07:42:47;;;;;;;198.40;190.07;;;;;;;;;;5038780;28;20459;-58
2021/10/06 07:45:12;;;;;;;193.43;185.27;;;;;;;;;;5035710;28;20498;-59
2021/10/06 07:47:37;;;;;;;203.90;195.27;;;;;;;;;;5034614;28;20038;-59
2021/10/06 07:50:03;;;;;;;225.27;215.55;;;;;;;;;;5044195;28;20491;-60
2021/10/06 07:52:28;;;;;;;215.73;206.13;;;;;;;;;;5039612;28;20044;-60
2021/10/06 07:54:54;;;;;;;211.05;201.88;;;;;;;;;;5034983;28;20021;-58
2021/10/06 07:57:19;;;;;;;226.45;216.80;;;;;;;;;;5039428;28;20037;-58
2021/10/06 07:59:44;;;;;;;231.88;221.55;;;;;;;;;;5042450;28;20115;-58
2021/10/06 08:02:10;;;;;;;228.30;218.18;;;;;;;;;;5038727;28;20029;-60
2021/10/06 08:04:36;;;;;;;193.07;184.93;;;;;;;;;;5042151;28;20108;-60
2021/10/06 08:07:01;;;;;;;208.38;199.48;;;;;;;;;;5040235;28;20364;-60
2021/10/06 08:09:26;;;;;;;232.20;221.80;;;;;;;;;;5035995;28;20210;-59
2021/10/06 08:11:52;;;;;;;223.27;213.10;;;;;;;;;;5039256;28;20040;-59
2021/10/06 08:14:17;;;;;;;203.95;195.10;;;;;;;;;;5037996;28;20642;-60
2021/10/06 08:16:42;;;;;;;232.50;222.52;;;;;;;;;;5041421;28;20099;-60
2021/10/06 08:19:07;;;;;;;219.88;210.38;;;;;;;;;;5040132;28;20024;-60
2021/10/06 08:21:33;;;;;;;197.50;189.18;;;;;;;;;;5037889;28;20032;-59
2021/10/06 08:23:58;;;;;;;216.50;207.13;;;;;;;;;;5032320;28;20108;-58
2021/10/06 08:26:23;;;;;;;188.20;180.52;;;;;;;;;;5042554;28;20455;-60
2021/10/06 08:28:48;;;;;;;204.70;196.13;;;;;;;;;;5039083;28;20092;-61
2021/10/06 08:31:14;;;;;;;222.70;213.15;;;;;;;;;;5037720;28;20057;-59
2021/10/06 08:33:39;;;;;;;223.52;214.00;;;;;;;;;;5036051;28;20438;-60
2021/10/06 08:36:04;;;;;;;176.05;168.85;;;;;;;;;;5039485;28;20567;-60
2021/10/06 08:38:30;;;;;;;200.95;192.57;;;;;;;;;;5041880;28;20087;-59
2021/10/06 08:40:56;;;;;;;188.35;180.35;;;;;;;;;;5039547;28;20026;-59
2021/10/06 08:43:21;;;;;;;220.60;210.63;;;;;;;;;;5038026;28;20486;-58
2021/10/06 08:45:47;;;;;;;194.48;186.05;;;;;;;;;;5039822;28;20075;-59
2021/10/06 08:48:12;;;;;;;203.00;193.95;;;;;;;;;;5045265;28;20323;-61
2021/10/06 08:50:38;;;;;;;189.88;181.95;;;;;;;;;;5040550;28;20055;-64
2021/10/06 08:53:04;;;;;;;177.18;169.75;;;;;;;;;;5038132;28;20113;-61
2021/10/06 08:55:29;;;;;;;196.70;188.18;;;;;;;;;;5042157;28;20235;-63
2021/10/06 08:57:58;;;;;;;197.65;188.90;;;;;;;;;;5045108;28;20478;-63
2021/10/06 09:00:24;;;;;;;199.25;190.48;;;;;;;;;;5041498;28;20119;-63
2021/10/06 09:02:49;;;;;;;248.60;236.82;;;;;;;;;;5037675;28;20112;-63
2021/10/06 09:05:14;;;;;;;249.30;237.20;;;;;;;;;;5044083;28;20017;-63
2021/10/06 09:08:12;;;;;;;264.08;251.15;;;;;;;;;;5034394;28;20045;-63
2021/10/06 09:10:44;;;;;;;258.42;245.82;;;;;;;;;;5005038;28;20037;-62
2021/10/06 09:13:10;;;;;;;243.55;231.70;;;;;;;;;;5032645;28;20364;-62
2021/10/06 09:15:45;;;;;;;248.13;236.48;;;;;;;;;;5037654;28;20020;-60
2021/10/06 09:18:12;;;;;;;293.38;278.42;;;;;;;;;;5034448;28;20044;-62
2021/10/06 09:20:38;;;;;;;303.75;288.27;;;;;;;;;;5036004;28;20027;-62
2021/10/06 09:23:07;;;;;;;328.73;311.20;;;;;;;;;;5038219;28;20103;-60
2021/10/06 09:25:45;;;;;;;347.83;328.83;;;;;;;;;;5038409;28;20418;-62
2021/10/06 09:28:16;;;;;;;343.73;324.75;;;;;;;;;;5033285;28;20593;-61
2021/10/06 09:30:43;;;;;;;396.38;373.25;;;;;;;;;;5028782;28;20025;-61
2021/10/06 09:33:08;;;;;;;387.52;364.95;;;;;;;;;;5038251;28;20039;-61
2021/10/06 09:35:33;;;;;;;390.35;367.25;;;;;;;;;;5040495;28;20017;-62
2021/10/06 09:37:58;;;;;;;404.45;379.05;;;;;;;;;;5034778;28;20029;-62
2021/10/06 09:40:25;;;;;;;424.90;398.20;;;;;;;;;;5038701;28;20013;-61
2021/10/06 09:42:55;;;;;;;410.40;385.60;;;;;;;;;;5039220;28;20066;-62
2021/10/06 09:45:29;;;;;;;394.77;369.30;;;;;;;;;;5040762;28;20025;-62
2021/10/06 09:48:03;;;;;;;393.65;369.73;;;;;;;;;;5035791;28;20099;-62
2021/10/06 09:50:28;;;;;;;374.80;351.35;;;;;;;;;;5037211;28;20037;-62
2021/10/06 09:52:54;;;;;;;385.20;362.05;;;;;;;;;;5040130;28;20344;-62
2021/10/06 09:55:19;;;;;;;388.48;364.55;;;;;;;;;;5037413;28;20711;-62
2021/10/06 09:57:45;;;;;;;353.67;333.30;;;;;;;;;;5033423;28;20068;-62
2021/10/06 10:00:18;;;;;;;371.08;349.02;;;;;;;;;;5038901;28;20127;-60
2021/10/06 10:02:44;;;;;;;353.15;332.27;;;;;;;;;;5038889;28;20052;-61
2021/10/06 10:05:09;;;;;;;342.38;322.48;;;;;;;;;;5042000;28;20044;-60
2021/10/06 10:07:35;;;;;;;344.42;324.70;;;;;;;;;;5038748;28;20079;-61
2021/10/06 10:10:00;;;;;;;349.00;328.75;;;;;;;;;;5041033;28;20021;-63
2021/10/06 10:12:27;;;;;;;337.02;317.80;;;;;;;;;;5045235;28;20012;-62
2021/10/06 10:14:54;;;;;;;339.85;320.02;;;;;;;;;;5042947;28;20043;-61
2021/10/06 10:17:19;;;;;;;362.02;340.70;;;;;;;;;;5036747;28;20372;-62
2021/10/06 10:19:46;;;;;;;383.23;359.95;;;;;;;;;;5039413;28;20029;-61
2021/10/06 10:22:12;;;;;;;397.10;373.02;;;;;;;;;;5044279;28;20031;-61
2021/10/06 10:24:45;;;;;;;398.55;372.73;;;;;;;;;;5038095;28;20014;-61
2021/10/06 10:27:11;;;;;;;400.02;375.42;;;;;;;;;;5035702;28;20116;-61
2021/10/06 10:29:45;;;;;;;374.95;350.88;;;;;;;;;;5035981;28;20144;-61
2021/10/06 10:32:12;;;;;;;379.33;354.55;;;;;;;;;;5038324;28;20030;-61
2021/10/06 10:34:58;;;;;;;386.67;361.90;;;;;;;;;;5034757;28;20529;-60
2021/10/06 10:37:39;;;;;;;391.02;365.35;;;;;;;;;;5038122;28;20167;-61
2021/10/06 10:40:04;;;;;;;383.73;358.63;;;;;;;;;;5039561;28;20028;-61
2021/10/06 10:42:48;;;;;;;379.27;354.70;;;;;;;;;;5040420;28;20017;-60
2021/10/06 10:45:33;;;;;;;403.33;373.95;;;;;;;;;;5033935;28;20455;-61
2021/10/06 10:47:58;;;;;;;395.73;367.87;;;;;;;;;;5035071;28;20107;-62
2021/10/06 10:50:35;;;;;;;400.05;371.08;;;;;;;;;;5035817;28;20113;-59
2021/10/06 10:53:02;;;;;;;388.10;359.75;;;;;;;;;;5034663;28;20035;-62
2021/10/06 10:55:52;;;;;;;392.55;365.88;;;;;;;;;;5034170;28;20052;-62
2021/10/06 10:58:30;;;;;;;398.88;371.40;;;;;;;;;;5029189;28;20384;-59
2021/10/06 11:01:14;;;;;;;389.17;362.52;;;;;;;;;;5034999;28;20052;-62
2021/10/06 11:03:58;;;;;;;387.33;360.20;;;;;;;;;;5033339;28;20100;-62
2021/10/06 11:06:34;;;;;;;384.73;355.90;;;;;;;;;;5034132;28;20040;-61
2021/10/06 11:08:59;;;;;;;;;;;;;;;;;;5034951;28;20026;-61
2021/10/06 11:11:24;;;;;;;371.48;344.98;;;;;;;;;;5034291;28;19932;-61
2021/10/06 11:13:49;;;;;;;381.38;355.70;;;;;;;;;;5032327;28;20144;-61
2021/10/06 11:16:15;;;;;;;387.25;359.92;;;;;;;;;;5034188;28;20055;-61
2021/10/06 11:19:04;;;;;;;393.75;367.02;;;;;;;;;;5034723;28;20080;-60
2021/10/06 11:21:42;;;;;;;384.15;356.92;;;;;;;;;;5031500;28;20075;-61
2021/10/06 11:24:19;;;;;;;384.70;357.63;;;;;;;;;;5032641;28;20021;-61
2021/10/06 11:26:45;;;;;;;406.83;377.75;;;;;;;;;;5034715;28;20199;-61
2021/10/06 11:29:10;;;;;;;398.05;369.25;;;;;;;;;;5023950;28;20170;-63
2021/10/06 11:31:36;;;;;;;401.13;372.38;;;;;;;;;;5012720;28;20083;-61
2021/10/06 11:34:06;;;;;;;397.38;365.33;;;;;;;;;;5013312;28;20044;-61
2021/10/06 11:36:34;;;;;;;409.10;379.83;;;;;;;;;;5016543;28;20383;-58
2021/10/06 11:39:02;;;;;;;416.80;388.15;;;;;;;;;;5014755;28;20072;-60
2021/10/06 11:41:28;;;;;;;416.70;387.02;;;;;;;;;;5012094;28;20056;-58
2021/10/06 11:43:54;;;;;;;420.55;391.42;;;;;;;;;;5014249;28;20101;-56
2021/10/06 11:46:32;;;;;;;422.83;393.00;;;;;;;;;;5015630;28;20017;-58
2021/10/06 11:48:58;;;;;;;415.35;386.02;;;;;;;;;;5018391;28;20030;-56
2021/10/06 11:51:37;;;;;;;418.67;389.50;;;;;;;;;;5016659;28;20063;-55
2021/10/06 11:54:02;;;;;;;416.40;387.13;;;;;;;;;;5020390;28;20033;-55
2021/10/06 11:56:28;;;;;;;408.95;380.67;;;;;;;;;;5029648;28;20052;-57
2021/10/06 11:58:54;;;;;;;414.45;385.23;;;;;;;;;;5021369;28;20480;-57
2021/10/06 12:01:19;;;;;;;427.27;397.42;;;;;;;;;;5021442;28;20085;-60
2021/10/06 12:03:44;;;;;;;393.05;365.02;;;;;;;;;;5023289;28;20318;-57
2021/10/06 12:06:11;;;;;;;410.33;380.58;;;;;;;;;;5023880;28;20116;-57
2021/10/06 12:08:36;;;;;;;409.67;381.70;;;;;;;;;;5018306;28;20034;-58
2021/10/06 12:11:03;;;;;;;421.08;390.13;;;;;;;;;;5020554;28;20025;-56
2021/10/06 12:13:31;;;;;;;403.60;375.63;;;;;;;;;;5020714;28;20040;-59
2021/10/06 12:15:56;;;;;;;409.13;380.17;;;;;;;;;;5016072;28;20041;-57
2021/10/06 12:18:22;;;;;;;425.45;394.83;;;;;;;;;;5015607;28;20542;-58
2021/10/06 12:20:47;;;;;;;413.88;384.70;;;;;;;;;;5017572;28;20026;-60
2021/10/06 12:23:21;;;;;;;401.27;372.33;;;;;;;;;;5020408;28;20423;-58
2021/10/06 12:25:51;;;;;;;413.17;383.05;;;;;;;;;;5020566;28;20029;-59
2021/10/06 12:28:18;;;;;;;405.58;375.50;;;;;;;;;;5021011;28;20075;-57
2021/10/06 12:30:50;;;;;;;413.42;383.10;;;;;;;;;;5036367;28;20093;-59
2021/10/06 12:33:16;;;;;;;396.25;366.02;;;;;;;;;;5040375;28;20025;-60
2021/10/06 12:35:42;;;;;;;411.92;384.42;;;;;;;;;;5038713;28;20032;-59
2021/10/06 12:38:07;;;;;;;414.27;385.98;;;;;;;;;;5036242;28;20037;-60
2021/10/06 12:40:33;;;;;;;411.85;383.08;;;;;;;;;;5038059;28;20044;-59
2021/10/06 12:43:04;;;;;;;409.23;381.25;;;;;;;;;;5038025;28;20026;-56
2021/10/06 12:45:31;;;;;;;415.77;388.15;;;;;;;;;;5025136;28;20021;-59
2021/10/06 12:47:56;;;;;;;425.75;396.95;;;;;;;;;;5034939;28;20033;-57
2021/10/06 12:50:22;;;;;;;410.58;384.33;;;;;;;;;;5035463;28;20368;-59
2021/10/06 12:52:48;;;;;;;431.45;401.70;;;;;;;;;;5039950;28;20040;-60
2021/10/06 12:55:14;;;;;;;422.65;394.05;;;;;;;;;;5036524;28;20022;-60
2021/10/06 12:57:40;;;;;;;386.95;362.90;;;;;;;;;;5035819;28;20033;-59
2021/10/06 13:00:35;;;;;;;394.80;370.52;;;;;;;;;;5038960;28;20017;-60
2021/10/06 13:03:00;;;;;;;376.13;352.85;;;;;;;;;;5031472;28;20438;-60
2021/10/06 13:05:27;;;;;;;351.60;330.05;;;;;;;;;;5037362;28;20092;-58
2021/10/06 13:07:53;;;;;;;369.73;347.23;;;;;;;;;;5034402;28;20490;-59
2021/10/06 13:10:18;;;;;;;360.83;338.73;;;;;;;;;;5036851;28;20017;-58
2021/10/06 13:12:44;;;;;;;368.90;346.17;;;;;;;;;;5036729;28;20081;-60
2021/10/06 13:15:09;;;;;;;384.13;360.00;;;;;;;;;;5035661;28;20029;-60
2021/10/06 13:17:34;;;;;;;362.92;340.02;;;;;;;;;;5036396;28;20045;-60
2021/10/06 13:20:00;;;;;;;382.00;358.30;;;;;;;;;;5037463;28;20029;-58
2021/10/06 13:22:27;;;;;;;382.80;358.77;;;;;;;;;;5035956;28;20099;-59
2021/10/06 13:24:53;;;;;;;374.20;350.10;;;;;;;;;;5033566;28;20184;-60
2021/10/06 13:27:18;;;;;;;375.48;350.77;;;;;;;;;;5035158;28;20481;-56
2021/10/06 13:29:43;;;;;;;390.98;366.02;;;;;;;;;;5036377;28;20060;-60
2021/10/06 13:32:09;;;;;;;383.80;359.25;;;;;;;;;;5036949;28;20519;-60
2021/10/06 13:34:34;;;;;;;377.10;353.10;;;;;;;;;;5034308;28;20037;-58
2021/10/06 13:36:59;;;;;;;394.40;368.98;;;;;;;;;;5036220;28;20131;-56
2021/10/06 13:39:25;;;;;;;366.02;342.30;;;;;;;;;;5035169;28;20624;-56
2021/10/06 13:41:50;;;;;;;376.33;351.83;;;;;;;;;;5036656;28;20040;-59
2021/10/06 13:44:16;;;;;;;364.52;340.25;;;;;;;;;;5034099;28;20025;-59
2021/10/06 13:46:43;;;;;;;380.77;356.10;;;;;;;;;;5037210;28;20361;-60
2021/10/06 13:49:09;;;;;;;366.05;341.58;;;;;;;;;;5038579;28;20031;-60
2021/10/06 13:51:34;;;;;;;373.40;348.25;;;;;;;;;;5041073;28;20029;-55
2021/10/06 13:54:00;;;;;;;374.13;349.60;;;;;;;;;;5034824;28;20459;-60
2021/10/06 13:56:26;;;;;;;354.63;331.38;;;;;;;;;;5037309;28;20179;-59
2021/10/06 13:58:51;;;;;;;367.58;343.67;;;;;;;;;;5036436;28;20032;-59